createdAt,value
2019-01-12T00:00:19.248Z,7.49
2019-01-12T00:02:47.854Z,7.42
2019-01-12T00:05:16.561Z,7.36
2019-01-12T00:07:45.161Z,7.43
2019-01-12T00:10:14.291Z,7.53
2019-01-12T00:12:42.917Z,7.67
2019-01-12T00:15:11.531Z,7.74
2019-01-12T00:17:40.156Z,7.93
2019-01-12T00:20:09.607Z,8.02
2019-01-12T00:22:38.218Z,8.05
2019-01-12T00:25:08.365Z,8.29
2019-01-12T00:27:37.000Z,8.18
2019-01-12T00:30:08.917Z,7.85
2019-01-12T00:32:37.391Z,7.66
2019-01-12T00:35:06.720Z,7.50
2019-01-12T00:37:35.302Z,7.26
2019-01-12T00:40:05.089Z,7.32
2019-01-12T00:42:33.669Z,7.49
2019-01-12T00:45:02.274Z,7.72
2019-01-12T00:47:32.684Z,7.65
2019-01-12T00:50:01.471Z,7.76
2019-01-12T00:52:30.095Z,7.71
2019-01-12T00:54:58.631Z,7.64
2019-01-12T00:57:27.215Z,7.78
2019-01-12T00:59:55.754Z,8.00
2019-01-12T01:02:24.464Z,8.09
2019-01-12T01:04:53.092Z,7.81
2019-01-12T01:07:21.698Z,7.56
2019-01-12T01:09:50.333Z,7.38
2019-01-12T01:12:18.965Z,7.31
2019-01-12T01:14:47.489Z,7.18
2019-01-12T01:17:16.069Z,7.23
2019-01-12T01:19:44.685Z,7.38
2019-01-12T01:22:13.344Z,7.52
2019-01-12T01:24:45.762Z,7.59
2019-01-12T01:27:12.625Z,7.59
2019-01-12T01:29:41.251Z,7.65
2019-01-12T01:32:09.913Z,7.73
2019-01-12T01:34:38.512Z,7.86
2019-01-12T01:37:07.127Z,8.20
2019-01-12T01:39:35.635Z,8.06
2019-01-12T01:42:04.431Z,7.76
2019-01-12T01:44:33.024Z,7.48
2019-01-12T01:47:01.582Z,7.21
2019-01-12T01:49:30.318Z,7.09
2019-01-12T01:51:58.870Z,7.05
2019-01-12T01:54:27.485Z,7.09
2019-01-12T01:56:56.106Z,7.16
2019-01-12T01:59:24.662Z,7.28
2019-01-12T02:01:53.239Z,7.38
2019-01-12T02:04:21.841Z,7.34
2019-01-12T02:06:50.456Z,7.34
2019-01-12T02:09:19.057Z,7.42
2019-01-12T02:11:47.599Z,7.84
2019-01-12T02:14:16.190Z,7.83
2019-01-12T02:16:44.962Z,7.51
2019-01-12T02:19:13.563Z,7.32
2019-01-12T02:21:42.179Z,7.07
2019-01-12T02:24:10.765Z,6.87
2019-01-12T02:26:39.655Z,6.97
2019-01-12T02:29:08.282Z,7.12
2019-01-12T02:31:36.776Z,7.35
2019-01-12T02:34:05.482Z,7.47
2019-01-12T02:36:34.088Z,7.56
2019-01-12T02:39:02.961Z,7.68
2019-01-12T02:41:31.575Z,7.79
2019-01-12T02:44:00.240Z,7.73
2019-01-12T02:46:28.848Z,7.91
2019-01-12T02:48:58.102Z,8.24
2019-01-12T02:51:26.730Z,8.07
2019-01-12T02:53:55.281Z,7.75
2019-01-12T02:56:23.935Z,7.40
2019-01-12T02:58:52.510Z,7.24
2019-01-12T03:01:21.139Z,7.10
2019-01-12T03:03:49.763Z,6.98
2019-01-12T03:06:18.339Z,7.00
2019-01-12T03:08:46.787Z,7.03
2019-01-12T03:11:15.404Z,7.13
2019-01-12T03:13:44.016Z,7.15
2019-01-12T03:16:13.082Z,7.14
2019-01-12T03:18:41.591Z,7.16
2019-01-12T03:21:10.298Z,7.41
2019-01-12T03:23:38.920Z,7.88
2019-01-12T03:26:07.452Z,7.65
2019-01-12T03:28:36.015Z,7.31
2019-01-12T03:31:04.601Z,7.28
2019-01-12T03:33:33.203Z,7.28
2019-01-12T03:36:01.820Z,7.31
2019-01-12T03:38:30.342Z,7.33
2019-01-12T03:40:59.003Z,7.28
2019-01-12T03:43:27.626Z,7.27
2019-01-12T03:45:56.259Z,7.14
2019-01-12T03:48:24.896Z,7.11
2019-01-12T03:50:53.548Z,7.25
2019-01-12T03:53:22.124Z,7.35
2019-01-12T03:55:50.728Z,7.46
2019-01-12T03:58:19.333Z,7.71
2019-01-12T04:00:47.957Z,7.79
2019-01-12T04:03:16.563Z,7.56
2019-01-12T04:05:45.361Z,7.34
2019-01-12T04:08:13.968Z,7.22
2019-01-12T04:10:42.471Z,6.97
2019-01-12T04:13:11.089Z,6.87
2019-01-12T04:15:39.739Z,6.78
2019-01-12T04:18:08.349Z,6.76
2019-01-12T04:20:36.977Z,6.88
2019-01-12T04:23:05.590Z,6.88
2019-01-12T04:25:34.567Z,6.97
2019-01-12T04:28:03.283Z,7.30
2019-01-12T04:30:31.884Z,7.40
2019-01-12T04:33:00.454Z,7.58
2019-01-12T04:35:28.988Z,7.84
2019-01-12T04:37:57.570Z,7.49
2019-01-12T04:40:26.179Z,7.28
2019-01-12T04:42:54.764Z,7.17
2019-01-12T04:45:23.422Z,6.94
2019-01-12T04:47:52.040Z,6.84
2019-01-12T04:50:20.630Z,6.59
2019-01-12T04:52:49.222Z,6.71
2019-01-12T04:55:17.939Z,6.76
2019-01-12T04:57:46.565Z,6.94
2019-01-12T05:00:16.595Z,6.88
2019-01-12T05:02:45.847Z,6.92
2019-01-12T05:05:14.975Z,7.03
2019-01-12T05:07:43.506Z,7.20
2019-01-12T05:10:13.218Z,7.51
2019-01-12T05:12:41.903Z,7.45
2019-01-12T05:15:14.365Z,7.24
2019-01-12T05:17:42.981Z,7.08
2019-01-12T05:20:19.196Z,6.98
2019-01-12T05:22:48.038Z,6.92
2019-01-12T05:25:16.642Z,6.85
2019-01-12T05:27:45.763Z,6.97
2019-01-12T05:30:17.276Z,7.12
2019-01-12T05:32:45.877Z,7.14
2019-01-12T05:35:14.451Z,7.29
2019-01-12T05:37:43.023Z,7.43
2019-01-12T05:40:11.835Z,7.37
2019-01-12T05:42:40.397Z,7.44
2019-01-12T05:45:11.326Z,7.81
2019-01-12T05:47:39.912Z,7.80
2019-01-12T05:50:10.644Z,7.44
2019-01-12T05:52:39.232Z,7.16
2019-01-12T05:55:08.964Z,7.08
2019-01-12T05:57:37.537Z,7.03
2019-01-12T06:00:09.123Z,6.89
2019-01-12T06:02:37.753Z,6.88
2019-01-12T06:05:06.343Z,6.87
2019-01-12T06:07:34.893Z,6.98
2019-01-12T06:10:04.378Z,7.08
2019-01-12T06:12:32.932Z,7.23
2019-01-12T06:15:01.397Z,7.33
2019-01-12T06:17:30.027Z,7.45
2019-01-12T06:19:58.671Z,7.53
2019-01-12T06:22:27.360Z,7.82
2019-01-12T06:24:55.940Z,7.67
2019-01-12T06:27:24.625Z,7.47
2019-01-12T06:29:53.138Z,7.32
2019-01-12T06:32:21.703Z,7.15
2019-01-12T06:34:50.208Z,6.96
2019-01-12T06:37:18.962Z,6.90
2019-01-12T06:39:47.551Z,6.90
2019-01-12T06:42:16.136Z,7.05
2019-01-12T06:44:44.742Z,7.14
2019-01-12T06:47:13.402Z,7.26
2019-01-12T06:49:41.906Z,7.37
2019-01-12T06:52:10.491Z,7.40
2019-01-12T06:54:39.178Z,7.45
2019-01-12T06:57:07.735Z,7.66
2019-01-12T06:59:36.348Z,7.63
2019-01-12T07:02:05.186Z,7.39
2019-01-12T07:04:33.752Z,7.20
2019-01-12T07:07:02.364Z,6.98
2019-01-12T07:09:30.980Z,7.03
2019-01-12T07:11:59.554Z,7.11
2019-01-12T07:14:28.179Z,7.14
2019-01-12T07:16:56.721Z,7.23
2019-01-12T07:19:25.411Z,7.30
2019-01-12T07:21:54.033Z,7.30
2019-01-12T07:24:22.728Z,7.22
2019-01-12T07:26:51.296Z,7.30
2019-01-12T07:29:19.945Z,7.38
2019-01-12T07:31:48.462Z,7.50
2019-01-12T07:34:17.102Z,7.60
2019-01-12T07:36:46.188Z,7.52
2019-01-12T07:39:14.795Z,7.42
2019-01-12T07:41:43.385Z,7.23
2019-01-12T07:44:12.015Z,7.10
2019-01-12T07:46:40.522Z,6.96
2019-01-12T07:49:09.158Z,6.87
2019-01-12T07:51:37.739Z,6.94
2019-01-12T07:54:06.402Z,6.95
2019-01-12T07:56:34.955Z,6.99
2019-01-12T07:59:03.532Z,7.01
2019-01-12T08:01:32.147Z,7.04
2019-01-12T08:04:00.725Z,7.16
2019-01-12T08:06:29.312Z,7.35
2019-01-12T08:08:57.922Z,7.55
2019-01-12T08:11:26.527Z,7.36
2019-01-12T08:13:55.148Z,7.23
2019-01-12T08:16:23.789Z,7.03
2019-01-12T08:18:52.352Z,6.97
2019-01-12T08:21:20.959Z,7.01
2019-01-12T08:23:49.559Z,6.86
2019-01-12T08:26:18.185Z,6.87
2019-01-12T08:28:46.796Z,6.92
2019-01-12T08:31:16.924Z,6.94
2019-01-12T08:33:46.496Z,6.99
2019-01-12T08:36:15.037Z,7.03
2019-01-12T08:38:43.731Z,7.14
2019-01-12T08:41:12.332Z,7.63
2019-01-12T08:43:40.854Z,7.63
2019-01-12T08:46:09.471Z,7.61
2019-01-12T08:48:38.103Z,7.50
2019-01-12T08:51:06.647Z,7.33
2019-01-12T08:53:35.259Z,7.22
2019-01-12T08:56:03.886Z,7.10
2019-01-12T08:58:32.460Z,7.02
2019-01-12T09:01:00.983Z,6.98
2019-01-12T09:03:29.420Z,6.97
2019-01-12T09:05:58.051Z,7.04
2019-01-12T09:08:26.669Z,7.07
2019-01-12T09:10:55.141Z,7.05
2019-01-12T09:13:23.686Z,7.09
2019-01-12T09:15:52.231Z,7.19
2019-01-12T09:18:20.862Z,7.34
2019-01-12T09:20:49.456Z,7.35
2019-01-12T09:23:18.077Z,7.33
2019-01-12T09:25:46.705Z,7.23
2019-01-12T09:28:15.284Z,7.25
2019-01-12T09:30:48.475Z,7.20
2019-01-12T09:33:14.240Z,7.16
2019-01-12T09:35:42.821Z,7.22
2019-01-12T09:38:11.462Z,7.25
2019-01-12T09:40:39.962Z,7.28
2019-01-12T09:43:08.620Z,7.29
2019-01-12T09:45:37.336Z,7.23
2019-01-12T09:48:06.090Z,7.26
2019-01-12T09:50:34.607Z,7.32
2019-01-12T09:53:03.233Z,7.49
2019-01-12T09:55:31.867Z,7.76
2019-01-12T09:58:00.463Z,7.61
2019-01-12T10:00:29.159Z,7.43
2019-01-12T10:02:57.773Z,7.29
2019-01-12T10:05:26.382Z,7.15
2019-01-12T10:07:55.080Z,7.07
2019-01-12T10:10:23.916Z,7.11
2019-01-12T10:12:52.532Z,7.16
2019-01-12T10:15:21.236Z,7.19
2019-01-12T10:17:49.876Z,7.19
2019-01-12T10:20:19.292Z,7.29
2019-01-12T10:22:47.878Z,7.31
2019-01-12T10:25:17.202Z,7.44
2019-01-12T10:27:45.883Z,7.52
2019-01-12T10:30:24.480Z,7.69
2019-01-12T10:32:53.103Z,7.59
2019-01-12T10:35:22.011Z,7.43
2019-01-12T10:37:50.623Z,7.32
2019-01-12T10:40:20.092Z,7.23
2019-01-12T10:42:49.297Z,7.14
2019-01-12T10:45:20.322Z,7.11
2019-01-12T10:47:49.024Z,7.11
2019-01-12T10:50:22.068Z,7.23
2019-01-12T10:52:50.791Z,7.20
2019-01-12T10:55:19.501Z,7.23
2019-01-12T10:57:48.148Z,7.18
2019-01-12T11:00:20.112Z,7.18
2019-01-12T11:02:48.760Z,7.28
2019-01-12T11:05:17.800Z,7.38
2019-01-12T11:07:47.266Z,7.40
2019-01-12T11:10:15.924Z,7.20
2019-01-12T11:12:44.504Z,7.02
2019-01-12T11:15:18.675Z,6.90
2019-01-12T11:17:47.392Z,6.85
2019-01-12T11:20:16.017Z,6.80
2019-01-12T11:22:44.960Z,6.89
2019-01-12T11:25:14.704Z,6.96
2019-01-12T11:27:44.350Z,6.94
2019-01-12T11:30:18.451Z,6.99
2019-01-12T11:32:47.305Z,7.05
2019-01-12T11:35:15.888Z,7.00
2019-01-12T11:37:44.636Z,7.02
2019-01-12T11:40:15.928Z,7.21
2019-01-12T11:42:44.580Z,7.36
2019-01-12T11:45:14.171Z,7.16
2019-01-12T11:47:42.721Z,7.02
2019-01-12T11:50:13.670Z,6.94
2019-01-12T11:52:42.456Z,6.86
2019-01-12T11:55:12.753Z,6.79
2019-01-12T11:57:41.459Z,6.80
2019-01-12T12:00:13.048Z,6.86
2019-01-12T12:02:41.711Z,6.88
2019-01-12T12:05:10.470Z,6.84
2019-01-12T12:07:39.127Z,6.82
2019-01-12T12:10:10.620Z,6.93
2019-01-12T12:12:39.312Z,7.06
2019-01-12T12:15:11.379Z,7.14
2019-01-12T12:17:39.979Z,7.30
2019-01-12T12:20:14.731Z,7.30
2019-01-12T12:22:43.307Z,7.09
2019-01-12T12:25:12.151Z,6.98
2019-01-12T12:27:40.733Z,6.86
2019-01-12T12:30:12.337Z,6.84
2019-01-12T12:32:40.971Z,6.88
2019-01-12T12:35:09.635Z,6.90
2019-01-12T12:37:38.195Z,6.92
2019-01-12T12:40:10.020Z,6.90
2019-01-12T12:42:38.606Z,6.92
2019-01-12T12:45:10.168Z,6.99
2019-01-12T12:47:38.811Z,7.04
2019-01-12T12:50:10.514Z,7.21
2019-01-12T12:52:39.028Z,7.50
2019-01-12T12:55:08.225Z,7.44
2019-01-12T12:57:36.935Z,7.22
2019-01-12T13:00:23.317Z,7.02
2019-01-12T13:02:51.950Z,6.87
2019-01-12T13:05:20.762Z,6.84
2019-01-12T13:07:49.404Z,6.89
2019-01-12T13:10:20.476Z,6.94
2019-01-12T13:12:49.096Z,6.97
2019-01-12T13:15:17.993Z,7.13
2019-01-12T13:17:47.569Z,7.20
2019-01-12T13:20:18.351Z,7.15
2019-01-12T13:22:49.362Z,7.08
2019-01-12T13:25:18.109Z,7.29
2019-01-12T13:27:47.795Z,7.57
2019-01-12T13:30:21.417Z,7.83
2019-01-12T13:32:50.116Z,7.68
2019-01-12T13:35:18.802Z,7.45
2019-01-12T13:37:48.037Z,7.35
2019-01-12T13:40:23.064Z,7.20
2019-01-12T13:42:51.731Z,7.13
2019-01-12T13:45:21.473Z,7.21
2019-01-12T13:47:50.144Z,7.25
2019-01-12T13:50:21.006Z,7.19
2019-01-12T13:52:49.673Z,7.23
2019-01-12T13:55:18.346Z,7.28
2019-01-12T13:57:48.305Z,7.43
2019-01-12T14:00:20.875Z,7.58
2019-01-12T14:02:49.502Z,7.81
2019-01-12T14:05:18.144Z,8.22
2019-01-12T14:07:47.810Z,8.00
2019-01-12T14:10:19.156Z,7.78
2019-01-12T14:12:47.829Z,7.71
2019-01-12T14:15:18.063Z,7.47
2019-01-12T14:17:46.704Z,7.42
2019-01-12T14:20:26.975Z,7.49
2019-01-12T14:22:55.611Z,7.39
2019-01-12T14:25:24.261Z,7.41
2019-01-12T14:27:54.972Z,7.45
2019-01-12T14:30:23.389Z,7.53
2019-01-12T14:32:52.050Z,7.69
2019-01-12T14:35:20.880Z,7.85
2019-01-12T14:37:50.180Z,7.90
2019-01-12T14:40:22.021Z,8.08
2019-01-12T14:42:50.640Z,8.02
2019-01-12T14:45:25.232Z,7.77
2019-01-12T14:47:53.899Z,7.60
2019-01-12T14:50:22.829Z,7.58
2019-01-12T14:52:51.489Z,7.67
2019-01-12T14:55:21.534Z,7.66
2019-01-12T14:57:50.205Z,7.70
2019-01-12T15:00:26.619Z,7.70
2019-01-12T15:02:55.251Z,7.71
2019-01-12T15:05:25.665Z,7.82
2019-01-12T15:07:54.287Z,7.88
2019-01-12T15:10:23.766Z,7.96
2019-01-12T15:12:52.683Z,8.10
2019-01-12T15:15:21.368Z,8.36
2019-01-12T15:17:49.962Z,8.33
2019-01-12T15:20:23.790Z,8.08
2019-01-12T15:22:52.450Z,7.94
2019-01-12T15:25:21.246Z,7.94
2019-01-12T15:27:49.891Z,7.94
2019-01-12T15:30:26.826Z,7.90
2019-01-12T15:32:55.499Z,7.85
2019-01-12T15:35:26.420Z,7.66
2019-01-12T15:37:55.032Z,7.75
2019-01-12T15:40:23.929Z,7.88
2019-01-12T15:42:52.628Z,8.07
2019-01-12T15:45:25.798Z,8.01
2019-01-12T15:47:54.456Z,8.14
2019-01-12T15:50:27.177Z,8.36
2019-01-12T15:52:56.219Z,8.64
2019-01-12T15:55:24.986Z,8.44
2019-01-12T15:57:53.592Z,8.13
2019-01-12T16:00:24.458Z,7.98
2019-01-12T16:02:53.031Z,7.87
2019-01-12T16:05:21.640Z,7.86
2019-01-12T16:07:50.292Z,7.94
2019-01-12T16:10:19.020Z,8.11
2019-01-12T16:12:47.636Z,8.19
2019-01-12T16:15:18.951Z,8.24
2019-01-12T16:17:47.706Z,8.28
2019-01-12T16:20:19.014Z,8.30
2019-01-12T16:22:47.672Z,8.32
2019-01-12T16:25:16.941Z,8.47
2019-01-12T16:27:45.539Z,8.77
2019-01-12T16:30:21.150Z,8.64
2019-01-12T16:32:50.118Z,8.36
2019-01-12T16:35:19.101Z,8.21
2019-01-12T16:37:47.715Z,8.22
2019-01-12T16:40:18.635Z,7.94
2019-01-12T16:42:47.294Z,7.82
2019-01-12T16:45:17.357Z,7.81
2019-01-12T16:47:45.939Z,7.91
2019-01-12T16:50:14.760Z,7.91
2019-01-12T16:52:43.586Z,8.00
2019-01-12T16:55:15.110Z,8.14
2019-01-12T16:57:43.820Z,8.16
2019-01-12T17:00:15.734Z,8.37
2019-01-12T17:02:44.324Z,8.67
2019-01-12T17:05:12.950Z,8.55
2019-01-12T17:07:42.297Z,8.32
2019-01-12T17:10:16.240Z,8.02
2019-01-12T17:12:44.863Z,7.81
2019-01-12T17:15:15.349Z,7.71
2019-01-12T17:17:44.048Z,7.57
2019-01-12T17:20:19.304Z,7.62
2019-01-12T17:22:48.758Z,7.76
2019-01-12T17:25:17.370Z,7.77
2019-01-12T17:27:45.956Z,7.77
2019-01-12T17:30:19.836Z,7.82
2019-01-12T17:32:49.093Z,7.91
2019-01-12T17:35:17.676Z,8.11
2019-01-12T17:37:47.009Z,8.46
2019-01-12T17:40:16.930Z,8.42
2019-01-12T17:42:45.581Z,8.16
2019-01-12T17:45:16.700Z,7.90
2019-01-12T17:47:45.219Z,7.60
2019-01-12T17:50:16.158Z,7.49
2019-01-12T17:52:44.977Z,7.51
2019-01-12T17:55:18.507Z,7.50
2019-01-12T17:57:47.098Z,7.48
2019-01-12T18:00:19.916Z,7.68
2019-01-12T18:02:49.260Z,7.67
2019-01-12T18:05:17.881Z,7.66
2019-01-12T18:07:46.489Z,7.78
2019-01-12T18:10:15.426Z,7.97
2019-01-12T18:12:44.024Z,8.28
2019-01-12T18:15:16.950Z,8.62
2019-01-12T18:17:45.578Z,8.31
2019-01-12T18:20:18.736Z,8.06
2019-01-12T18:22:47.372Z,7.84
2019-01-12T18:25:16.962Z,7.61
2019-01-12T18:27:45.730Z,7.56
2019-01-12T18:30:22.321Z,7.49
2019-01-12T18:32:50.935Z,7.47
2019-01-12T18:35:19.649Z,7.61
2019-01-12T18:37:48.254Z,7.74
2019-01-12T18:40:18.928Z,7.84
2019-01-12T18:42:47.536Z,7.91
2019-01-12T18:45:18.080Z,8.06
2019-01-12T18:47:46.975Z,8.25
2019-01-12T18:50:18.404Z,8.59
2019-01-12T18:52:46.938Z,8.27
2019-01-12T18:55:15.876Z,8.11
2019-01-12T18:57:44.535Z,7.96
2019-01-12T19:00:18.567Z,7.80
2019-01-12T19:02:46.985Z,7.58
2019-01-12T19:05:15.649Z,7.34
2019-01-12T19:07:44.529Z,7.19
2019-01-12T19:10:14.199Z,7.40
2019-01-12T19:12:42.793Z,7.56
2019-01-12T19:15:28.502Z,7.64
2019-01-12T19:17:57.218Z,7.74
2019-01-12T19:20:26.688Z,7.85
2019-01-12T19:22:55.455Z,8.11
2019-01-12T19:25:24.023Z,8.64
2019-01-12T19:27:52.641Z,8.37
2019-01-12T19:30:22.625Z,8.06
2019-01-12T19:32:51.273Z,7.89
2019-01-12T19:35:19.987Z,7.71
2019-01-12T19:37:49.625Z,7.53
2019-01-12T19:40:20.219Z,7.40
2019-01-12T19:42:49.588Z,7.31
2019-01-12T19:45:18.339Z,7.34
2019-01-12T19:47:47.209Z,7.39
2019-01-12T19:50:18.184Z,7.37
2019-01-12T19:52:47.102Z,7.49
2019-01-12T19:55:15.772Z,7.85
2019-01-12T19:57:44.319Z,8.08
2019-01-12T20:00:15.349Z,8.40
2019-01-12T20:02:44.018Z,8.34
2019-01-12T20:05:12.635Z,7.99
2019-01-12T20:07:41.254Z,7.74
2019-01-12T20:10:12.871Z,7.54
2019-01-12T20:12:41.453Z,7.45
2019-01-12T20:15:13.360Z,7.40
2019-01-12T20:17:41.863Z,7.36
2019-01-12T20:20:13.212Z,7.52
2019-01-12T20:22:41.937Z,7.57
2019-01-12T20:25:13.393Z,7.68
2019-01-12T20:27:41.983Z,7.61
2019-01-12T20:30:16.203Z,7.63
2019-01-12T20:32:53.689Z,7.75
2019-01-12T20:35:31.143Z,8.03
2019-01-12T20:38:08.613Z,8.33
2019-01-12T20:40:42.617Z,7.99
2019-01-12T20:43:16.613Z,7.65
2019-01-12T20:46:00.042Z,7.43
2019-01-12T20:48:43.630Z,7.44
2019-01-12T20:51:20.873Z,7.43
2019-01-12T20:54:01.357Z,7.56
2019-01-12T20:56:38.763Z,7.59
2019-01-12T20:59:12.998Z,7.63
2019-01-12T21:01:47.225Z,7.62
2019-01-12T21:04:27.590Z,7.77
2019-01-12T21:07:01.963Z,7.98
2019-01-12T21:09:39.517Z,8.18
2019-01-12T21:12:17.906Z,8.58
2019-01-12T21:14:49.540Z,8.25
2019-01-12T21:17:18.153Z,7.98
2019-01-12T21:19:48.616Z,7.82
2019-01-12T21:22:17.266Z,7.61
2019-01-12T21:24:45.913Z,7.49
2019-01-12T21:27:14.506Z,7.52
2019-01-12T21:29:43.011Z,7.66
2019-01-12T21:32:11.656Z,7.59
2019-01-12T21:34:40.248Z,7.68
2019-01-12T21:37:08.894Z,7.74
2019-01-12T21:39:37.518Z,7.82
2019-01-12T21:42:06.173Z,7.88
2019-01-12T21:44:34.817Z,8.11
2019-01-12T21:47:03.450Z,8.47
2019-01-12T21:49:32.114Z,8.44
2019-01-12T21:52:00.779Z,8.22
2019-01-12T21:54:29.383Z,8.01
2019-01-12T21:56:57.970Z,7.77
2019-01-12T21:59:26.657Z,7.72
2019-01-12T22:01:55.373Z,7.70
2019-01-12T22:04:24.650Z,7.52
2019-01-12T22:06:53.330Z,7.52
2019-01-12T22:09:21.961Z,7.60
2019-01-12T22:11:50.659Z,7.41
2019-01-12T22:14:19.333Z,7.62
2019-01-12T22:16:48.056Z,7.75
2019-01-12T22:19:16.651Z,7.89
2019-01-12T22:21:45.261Z,8.16
2019-01-12T22:24:13.951Z,8.55
2019-01-12T22:26:43.030Z,8.25
2019-01-12T22:29:11.703Z,8.06
2019-01-12T22:31:40.320Z,7.81
2019-01-12T22:34:08.908Z,7.59
2019-01-12T22:36:37.516Z,7.36
2019-01-12T22:39:08.082Z,7.43
2019-01-12T22:41:36.717Z,7.39
2019-01-12T22:44:05.304Z,7.37
2019-01-12T22:46:33.939Z,7.41
2019-01-12T22:49:02.536Z,7.69
2019-01-12T22:51:31.193Z,7.75
2019-01-12T22:53:59.799Z,7.97
2019-01-12T22:56:28.390Z,8.11
2019-01-12T22:58:56.986Z,8.57
2019-01-12T23:01:28.921Z,8.42
2019-01-12T23:03:57.468Z,8.11
2019-01-12T23:06:26.092Z,7.84
2019-01-12T23:08:54.876Z,7.71
2019-01-12T23:11:23.528Z,7.77
2019-01-12T23:13:52.121Z,7.64
2019-01-12T23:16:20.762Z,7.81
2019-01-12T23:18:49.369Z,7.75
2019-01-12T23:21:17.956Z,7.81
2019-01-12T23:23:46.689Z,7.87
2019-01-12T23:26:15.225Z,7.88
2019-01-12T23:28:43.870Z,7.93
2019-01-12T23:31:13.320Z,8.10
2019-01-12T23:33:41.954Z,8.36
2019-01-12T23:36:10.653Z,8.54
2019-01-12T23:38:39.175Z,8.20
2019-01-12T23:41:07.764Z,8.07
2019-01-12T23:43:36.392Z,7.88
2019-01-12T23:46:05.197Z,7.63
2019-01-12T23:48:33.816Z,7.58
2019-01-12T23:51:02.440Z,7.58
2019-01-12T23:53:31.010Z,7.57
2019-01-12T23:55:59.614Z,7.62
2019-01-12T23:58:28.129Z,7.71
